Oldtown, Idaho
Current Conditions -  °F | °C
As of 9:55 AM on Saturday 20 Dec 2014 (Local Time) from KSZT Reporting Station
Drizzle Drizzle  
Wind Chill: 32°   Ceiling: 3700
Heat Index: 36°   Visibility: 10mi
Dew Point: 36°   Wind: 5mph
Humidity: 100%   Direction: 10°N
Pressure: 29.86"   Gusts: NA
Location:  48.18°N, 117.04°W
Report Text: KSZT 201755Z AUTO 01004KT 10SM -DZ BKN037 OVC055 02/02 A2986 RMK AO2
Loading
Personal Weather Stations






























Interactive Weather Map New forecast layout! Learn more

10-Day Weather Forecast

Advertisements
Track Severe Weather on mobile